Time;durP1;ratioP1;P1;durP2;ratioP2;P2;SDS_P1;SDS_P2;PMS_P1;PMS_P2;Temp;Humidity;BMP_temperature;BMP_pressure;BME280_temperature;BME280_humidity;BME280_pressure;Samples;Min_cycle;Max_cycle;Signal;HPM_P1;HPM_P2
2023/05/09 00:01:48;;;;;;;;;9.25;9.25;;;;;;;;5027048;28;8929;-81
2023/05/09 00:04:16;;;;;;;;;10.75;10.75;;;;;;;;5021626;28;8870;-80
2023/05/09 00:06:43;;;;;;;;;8.25;8.25;;;;;;;;5019970;28;8857;-82
2023/05/09 00:09:11;;;;;;;;;10.50;10.50;;;;;;;;5027325;28;8858;-82
2023/05/09 00:11:38;;;;;;;;;10.50;9.50;;;;;;;;5015927;28;8968;-81
2023/05/09 00:14:06;;;;;;;;;9.25;9.25;;;;;;;;5021055;28;8877;-83
2023/05/09 00:16:35;;;;;;;;;9.25;7.50;;;;;;;;5027215;28;8862;-82
2023/05/09 00:19:05;;;;;;;;;11.00;11.00;;;;;;;;5027283;28;9578;-81
2023/05/09 00:21:33;;;;;;;;;9.50;9.50;;;;;;;;5026430;28;8857;-81
2023/05/09 00:24:00;;;;;;;;;11.00;10.00;;;;;;;;5022109;28;8854;-82
2023/05/09 00:26:30;;;;;;;;;12.50;11.00;;;;;;;;5023847;28;8865;-81
2023/05/09 00:28:57;;;;;;;;;10.25;8.25;;;;;;;;5022680;28;9000;-81
2023/05/09 00:31:24;;;;;;;;;10.00;10.00;;;;;;;;5025666;28;8814;-82
2023/05/09 00:33:56;;;;;;;;;12.00;10.00;;;;;;;;5025505;28;9662;-82
2023/05/09 00:36:24;;;;;;;;;11.25;10.00;;;;;;;;5020422;28;9311;-82
2023/05/09 00:38:51;;;;;;;;;11.00;11.00;;;;;;;;5019942;28;8844;-82
2023/05/09 00:41:18;;;;;;;;;10.25;9.50;;;;;;;;5023421;28;8860;-83
2023/05/09 00:43:45;;;;;;;;;9.75;9.75;;;;;;;;5026438;28;8842;-82
2023/05/09 00:46:13;;;;;;;;;8.25;8.25;;;;;;;;5027648;28;8890;-82
2023/05/09 00:48:40;;;;;;;;;7.25;7.25;;;;;;;;5005882;28;8863;-81
2023/05/09 00:51:09;;;;;;;;;7.50;7.50;;;;;;;;5024557;28;8919;-82
2023/05/09 00:53:36;;;;;;;;;9.00;7.00;;;;;;;;5026253;28;8898;-82
2023/05/09 00:56:05;;;;;;;;;6.00;6.00;;;;;;;;5031528;28;8834;-81
2023/05/09 00:58:32;;;;;;;;;7.00;5.75;;;;;;;;5031506;28;8858;-80
2023/05/09 01:01:01;;;;;;;;;10.50;8.75;;;;;;;;5021259;28;8787;-81
2023/05/09 01:03:30;;;;;;;;;5.25;5.25;;;;;;;;5024260;28;8949;-80
2023/05/09 01:06:05;;;;;;;;;5.00;5.00;;;;;;;;5026975;28;8880;-82
2023/05/09 01:08:46;;;;;;;;;5.50;5.50;;;;;;;;5025251;28;8848;-82
2023/05/09 01:11:20;;;;;;;;;4.75;4.75;;;;;;;;5026100;28;8827;-81
2023/05/09 01:13:56;;;;;;;;;3.00;3.00;;;;;;;;5025178;28;8970;-81
2023/05/09 01:16:30;;;;;;;;;4.25;3.75;;;;;;;;5029127;28;8884;-82
2023/05/09 01:19:03;;;;;;;;;5.00;5.00;;;;;;;;5030261;28;8870;-81
2023/05/09 01:21:32;;;;;;;;;6.75;6.75;;;;;;;;5030894;28;8981;-82
2023/05/09 01:24:31;;;;;;;;;5.00;5.00;;;;;;;;5022891;28;8842;-81
2023/05/09 01:27:20;;;;;;;;;5.50;5.50;;;;;;;;5021848;28;8919;-81
2023/05/09 01:29:51;;;;;;;;;5.25;5.25;;;;;;;;5029775;28;8961;-81
2023/05/09 01:32:20;;;;;;;;;4.25;4.25;;;;;;;;5026121;28;9708;-81
2023/05/09 01:34:50;;;;;;;;;5.00;5.00;;;;;;;;5029026;28;8877;-82
2023/05/09 01:37:22;;;;;;;;;5.00;5.00;;;;;;;;5029887;28;8852;-81
2023/05/09 01:39:54;;;;;;;;;4.75;3.50;;;;;;;;5023305;28;8862;-81
2023/05/09 01:42:22;;;;;;;;;5.75;5.75;;;;;;;;5029453;28;8818;-82
2023/05/09 01:44:50;;;;;;;;;3.75;3.75;;;;;;;;5024527;28;8859;-81
2023/05/09 01:47:19;;;;;;;;;5.00;3.50;;;;;;;;5029893;28;8869;-81
2023/05/09 01:49:47;;;;;;;;;3.75;3.75;;;;;;;;5027354;28;8865;-80
2023/05/09 01:52:16;;;;;;;;;3.00;3.00;;;;;;;;5032190;28;8888;-81
2023/05/09 01:54:45;;;;;;;;;6.00;4.00;;;;;;;;5032107;28;8878;-80
2023/05/09 01:57:12;;;;;;;;;5.00;4.00;;;;;;;;5032006;28;8847;-80
2023/05/09 01:59:41;;;;;;;;;5.50;4.25;;;;;;;;5029252;28;8964;-81
2023/05/09 02:02:10;;;;;;;;;6.00;6.00;;;;;;;;5030370;28;8944;-81
2023/05/09 02:04:40;;;;;;;;;6.00;5.00;;;;;;;;5029144;28;8846;-81
2023/05/09 02:07:13;;;;;;;;;6.50;6.50;;;;;;;;5019932;28;8869;-80
2023/05/09 02:09:55;;;;;;;;;8.00;5.00;;;;;;;;5029313;28;8920;-81
2023/05/09 02:12:24;;;;;;;;;7.00;6.00;;;;;;;;5023857;28;8926;-81
2023/05/09 02:14:51;;;;;;;;;6.25;6.25;;;;;;;;5025305;28;8839;-82
2023/05/09 02:17:20;;;;;;;;;6.50;6.50;;;;;;;;5026162;28;8889;-82
2023/05/09 02:19:47;;;;;;;;;8.00;6.25;;;;;;;;5020941;28;8857;-82
2023/05/09 02:22:15;;;;;;;;;5.75;5.75;;;;;;;;5028577;28;8842;-82
2023/05/09 02:24:43;;;;;;;;;6.75;6.75;;;;;;;;5028828;28;8945;-82
2023/05/09 02:27:11;;;;;;;;;6.50;6.50;;;;;;;;5024970;28;8866;-82
2023/05/09 02:29:42;;;;;;;;;8.50;8.25;;;;;;;;5023732;28;8888;-82
2023/05/09 02:32:12;;;;;;;;;6.75;6.75;;;;;;;;5028173;28;8809;-84
2023/05/09 02:34:41;;;;;;;;;7.25;7.25;;;;;;;;5029081;28;9791;-82
2023/05/09 02:37:09;;;;;;;;;6.00;6.00;;;;;;;;5025650;28;8877;-82
2023/05/09 02:39:37;;;;;;;;;7.00;7.00;;;;;;;;5029632;28;8846;-82
2023/05/09 02:42:08;;;;;;;;;8.25;7.50;;;;;;;;5028351;28;8904;-82
2023/05/09 02:44:35;;;;;;;;;6.00;6.00;;;;;;;;5023065;28;9597;-82
2023/05/09 02:47:03;;;;;;;;;6.75;6.75;;;;;;;;5026166;28;8956;-82
2023/05/09 02:49:32;;;;;;;;;6.00;6.00;;;;;;;;5026206;28;8878;-81
2023/05/09 02:52:01;;;;;;;;;6.50;6.50;;;;;;;;5019443;28;8846;-82
2023/05/09 02:54:31;;;;;;;;;6.75;6.25;;;;;;;;5026898;28;8868;-81
2023/05/09 02:56:59;;;;;;;;;5.25;5.25;;;;;;;;5022967;28;8846;-81
2023/05/09 02:59:26;;;;;;;;;5.75;5.75;;;;;;;;5019646;28;8985;-81
2023/05/09 03:01:53;;;;;;;;;4.00;4.00;;;;;;;;5022382;28;8774;-81
2023/05/09 03:04:21;;;;;;;;;5.50;5.50;;;;;;;;5025014;28;8860;-81
2023/05/09 03:06:48;;;;;;;;;4.50;4.50;;;;;;;;5026880;28;8834;-81
2023/05/09 03:09:17;;;;;;;;;5.25;5.25;;;;;;;;5027641;28;9005;-82
2023/05/09 03:11:44;;;;;;;;;5.25;5.25;;;;;;;;5018740;28;8825;-81
2023/05/09 03:14:13;;;;;;;;;6.75;6.75;;;;;;;;5028116;28;8840;-81
2023/05/09 03:16:41;;;;;;;;;3.25;3.25;;;;;;;;5029667;28;9581;-81
2023/05/09 03:19:08;;;;;;;;;6.50;5.00;;;;;;;;5025018;28;8861;-81
2023/05/09 03:21:38;;;;;;;;;6.75;5.50;;;;;;;;5027818;28;8846;-81
2023/05/09 03:24:06;;;;;;;;;5.75;5.75;;;;;;;;5021227;28;8857;-81
2023/05/09 03:26:35;;;;;;;;;8.00;7.00;;;;;;;;5026080;28;9740;-80
2023/05/09 03:29:02;;;;;;;;;6.50;6.50;;;;;;;;5026420;28;8876;-82
2023/05/09 03:31:30;;;;;;;;;6.00;5.00;;;;;;;;5019516;28;8949;-82
2023/05/09 03:34:00;;;;;;;;;5.50;5.50;;;;;;;;5022494;28;9610;-82
2023/05/09 03:36:30;;;;;;;;;6.50;6.50;;;;;;;;5023041;28;8866;-81
2023/05/09 03:38:58;;;;;;;;;7.50;7.50;;;;;;;;5029101;28;8854;-82
2023/05/09 03:41:25;;;;;;;;;7.00;6.75;;;;;;;;5029139;28;8862;-82
2023/05/09 03:43:53;;;;;;;;;6.75;6.75;;;;;;;;5031935;28;8935;-81
2023/05/09 03:46:21;;;;;;;;;6.75;5.75;;;;;;;;5025479;28;8985;-81
2023/05/09 03:48:48;;;;;;;;;7.75;7.75;;;;;;;;5021549;28;8985;-82
2023/05/09 03:51:15;;;;;;;;;8.50;7.25;;;;;;;;5022074;28;8855;-82
2023/05/09 03:53:43;;;;;;;;;8.00;6.00;;;;;;;;5019689;28;8875;-82
2023/05/09 03:56:10;;;;;;;;;5.25;5.25;;;;;;;;5022565;28;8884;-82
2023/05/09 03:58:37;;;;;;;;;6.50;6.50;;;;;;;;5023798;28;8834;-81
2023/05/09 04:01:06;;;;;;;;;7.75;7.25;;;;;;;;5032631;28;8854;-82
2023/05/09 04:03:34;;;;;;;;;8.50;8.25;;;;;;;;5037187;28;8875;-81
2023/05/09 04:06:01;;;;;;;;;4.25;4.25;;;;;;;;5044828;28;8856;-76
2023/05/09 04:08:28;;;;;;;;;7.25;7.25;;;;;;;;5046159;28;8974;-79
2023/05/09 04:10:55;;;;;;;;;6.00;6.00;;;;;;;;5045049;28;8856;-79
2023/05/09 04:13:22;;;;;;;;;5.25;5.25;;;;;;;;5043696;28;8880;-79
2023/05/09 04:15:50;;;;;;;;;6.00;4.50;;;;;;;;5044526;28;8982;-77
2023/05/09 04:18:18;;;;;;;;;10.25;10.25;;;;;;;;5044799;28;8840;-76
2023/05/09 04:20:45;;;;;;;;;8.75;8.75;;;;;;;;5043041;28;8999;-76
2023/05/09 04:23:13;;;;;;;;;5.00;5.00;;;;;;;;5047218;28;8836;-77
2023/05/09 04:25:40;;;;;;;;;6.50;5.00;;;;;;;;5041048;28;8840;-76
2023/05/09 04:28:07;;;;;;;;;4.00;4.00;;;;;;;;5046497;28;8851;-76
2023/05/09 04:30:34;;;;;;;;;5.75;5.00;;;;;;;;5035134;28;8877;-76
2023/05/09 04:33:04;;;;;;;;;5.00;5.00;;;;;;;;5022124;28;8843;-76
2023/05/09 04:35:33;;;;;;;;;5.00;5.00;;;;;;;;5023004;28;9635;-76
2023/05/09 04:38:00;;;;;;;;;6.75;5.00;;;;;;;;5021475;28;8842;-77
2023/05/09 04:40:27;;;;;;;;;5.00;5.00;;;;;;;;5024286;28;8957;-77
2023/05/09 04:42:56;;;;;;;;;5.25;5.25;;;;;;;;5016073;28;8862;-78
2023/05/09 04:45:23;;;;;;;;;4.50;4.50;;;;;;;;5025253;28;8834;-77
2023/05/09 04:47:50;;;;;;;;;3.00;3.00;;;;;;;;5025801;28;8878;-76
2023/05/09 04:50:17;;;;;;;;;5.00;4.00;;;;;;;;5024128;28;8941;-78
2023/05/09 04:52:46;;;;;;;;;4.00;4.00;;;;;;;;5025495;28;8876;-77
2023/05/09 04:55:13;;;;;;;;;3.50;3.50;;;;;;;;5025793;28;8842;-77
2023/05/09 04:57:40;;;;;;;;;5.25;5.25;;;;;;;;5023040;28;8830;-76
2023/05/09 05:00:10;;;;;;;;;5.50;4.25;;;;;;;;5023399;28;8827;-77
2023/05/09 05:02:37;;;;;;;;;4.25;4.25;;;;;;;;5019348;28;8842;-77
2023/05/09 05:05:05;;;;;;;;;3.75;3.75;;;;;;;;5019100;28;8835;-77
2023/05/09 05:07:32;;;;;;;;;1.50;1.50;;;;;;;;5020773;28;8849;-76
2023/05/09 05:10:01;;;;;;;;;3.00;3.00;;;;;;;;5023616;28;8981;-76
2023/05/09 05:12:28;;;;;;;;;2.25;2.25;;;;;;;;5024693;28;8866;-77
2023/05/09 05:14:55;;;;;;;;;1.00;1.00;;;;;;;;5020317;28;9010;-76
2023/05/09 05:17:23;;;;;;;;;3.00;3.00;;;;;;;;5018955;28;8878;-73
2023/05/09 05:19:50;;;;;;;;;2.25;2.25;;;;;;;;5024604;28;8856;-75
2023/05/09 05:22:18;;;;;;;;;2.00;2.00;;;;;;;;5028233;28;8844;-78
2023/05/09 05:24:45;;;;;;;;;1.75;1.75;;;;;;;;5017600;28;8850;-78
2023/05/09 05:27:13;;;;;;;;;1.33;1.33;;;;;;;;5016801;28;8834;-77
2023/05/09 05:29:41;;;;;;;;;4.00;2.00;;;;;;;;5025888;28;8945;-75
2023/05/09 05:32:08;;;;;;;;;1.50;1.50;;;;;;;;5022180;28;8808;-77
2023/05/09 05:34:35;;;;;;;;;3.00;2.00;;;;;;;;5019370;28;8852;-78
2023/05/09 05:37:02;;;;;;;;;3.00;3.00;;;;;;;;5020654;28;8873;-81
2023/05/09 05:39:29;;;;;;;;;2.00;2.00;;;;;;;;5022398;28;8870;-75
2023/05/09 05:41:56;;;;;;;;;1.00;1.00;;;;;;;;5018801;28;8856;-75
2023/05/09 05:44:25;;;;;;;;;2.00;2.00;;;;;;;;5018601;28;8954;-76
2023/05/09 05:46:52;;;;;;;;;6.00;3.75;;;;;;;;5027672;28;8870;-74
2023/05/09 05:49:19;;;;;;;;;3.00;3.00;;;;;;;;5025409;28;8880;-77
2023/05/09 05:51:46;;;;;;;;;4.50;3.00;;;;;;;;5019009;28;8845;-76
2023/05/09 05:54:13;;;;;;;;;5.00;3.00;;;;;;;;5029192;28;8924;-75
2023/05/09 05:56:41;;;;;;;;;2.25;2.25;;;;;;;;5029622;28;8981;-75
2023/05/09 05:59:08;;;;;;;;;3.00;3.00;;;;;;;;5029676;28;8868;-74
2023/05/09 06:01:36;;;;;;;;;4.25;2.50;;;;;;;;5029294;28;8790;-74
2023/05/09 06:04:04;;;;;;;;;4.00;4.00;;;;;;;;5018222;28;9008;-74
2023/05/09 06:06:31;;;;;;;;;3.25;3.25;;;;;;;;5028952;28;8988;-74
2023/05/09 06:08:58;;;;;;;;;3.00;3.00;;;;;;;;5033288;28;9280;-74
2023/05/09 06:11:26;;;;;;;;;4.50;4.50;;;;;;;;5028819;28;8873;-74
2023/05/09 06:13:53;;;;;;;;;1.75;1.75;;;;;;;;5029655;28;8849;-76
2023/05/09 06:16:20;;;;;;;;;4.25;4.25;;;;;;;;5028792;28;8834;-75
2023/05/09 06:18:49;;;;;;;;;4.50;4.50;;;;;;;;5029556;28;8863;-75
2023/05/09 06:21:16;;;;;;;;;3.00;3.00;;;;;;;;5028294;28;8905;-74
2023/05/09 06:23:43;;;;;;;;;3.25;3.25;;;;;;;;5029174;28;8871;-75
2023/05/09 06:26:11;;;;;;;;;3.00;3.00;;;;;;;;5019347;28;8854;-75
2023/05/09 06:28:38;;;;;;;;;4.00;4.00;;;;;;;;5029297;28;8859;-74
2023/05/09 06:31:05;;;;;;;;;3.00;3.00;;;;;;;;5026853;28;8880;-75
2023/05/09 06:33:33;;;;;;;;;4.00;4.00;;;;;;;;5028997;28;8823;-73
2023/05/09 06:36:02;;;;;;;;;3.25;3.25;;;;;;;;5024290;28;9245;-73
2023/05/09 06:38:29;;;;;;;;;4.25;4.25;;;;;;;;5018956;28;9223;-73
2023/05/09 06:40:56;;;;;;;;;3.75;2.75;;;;;;;;5026041;28;8846;-75
2023/05/09 06:43:23;;;;;;;;;3.00;3.00;;;;;;;;5015293;28;8844;-75
2023/05/09 06:45:50;;;;;;;;;2.75;2.00;;;;;;;;5021202;28;8964;-75
2023/05/09 06:48:17;;;;;;;;;2.75;2.75;;;;;;;;5021035;28;8842;-74
2023/05/09 06:50:45;;;;;;;;;3.25;2.00;;;;;;;;5027045;28;8888;-77
2023/05/09 06:53:14;;;;;;;;;2.50;2.50;;;;;;;;5026199;28;8860;-75
2023/05/09 06:55:41;;;;;;;;;2.50;2.00;;;;;;;;5028691;28;8841;-75
2023/05/09 06:58:09;;;;;;;;;3.50;3.00;;;;;;;;5027596;28;8850;-74
2023/05/09 07:00:37;;;;;;;;;2.75;2.75;;;;;;;;5023456;28;8856;-75
2023/05/09 07:03:06;;;;;;;;;2.50;2.50;;;;;;;;5027513;28;8882;-75
2023/05/09 07:05:34;;;;;;;;;2.50;2.50;;;;;;;;5028775;28;9546;-75
2023/05/09 07:08:02;;;;;;;;;0.00;0.00;;;;;;;;5025418;28;9641;-75
2023/05/09 07:10:31;;;;;;;;;2.00;2.00;;;;;;;;5026990;28;8867;-75
2023/05/09 07:12:58;;;;;;;;;2.25;2.25;;;;;;;;5026812;28;8868;-74
2023/05/09 07:15:25;;;;;;;;;1.00;1.00;;;;;;;;5027580;28;8850;-75
2023/05/09 07:17:52;;;;;;;;;1.00;1.00;;;;;;;;5025348;28;8846;-75
2023/05/09 07:20:19;;;;;;;;;2.00;2.00;;;;;;;;5027431;28;9014;-75
2023/05/09 07:22:46;;;;;;;;;2.00;2.00;;;;;;;;5026682;28;9401;-75
2023/05/09 07:25:14;;;;;;;;;3.00;1.00;;;;;;;;5025184;28;8922;-75
2023/05/09 07:27:42;;;;;;;;;1.00;1.00;;;;;;;;5023280;28;8875;-75
2023/05/09 07:30:10;;;;;;;;;2.00;2.00;;;;;;;;5021701;28;8849;-75
2023/05/09 07:32:38;;;;;;;;;1.00;1.00;;;;;;;;5026609;28;8913;-75
2023/05/09 07:35:05;;;;;;;;;1.00;1.00;;;;;;;;5025479;28;8908;-75
2023/05/09 07:37:33;;;;;;;;;1.00;1.00;;;;;;;;5025904;28;9670;-75
2023/05/09 07:40:02;;;;;;;;;1.00;1.00;;;;;;;;5026782;28;8954;-74
2023/05/09 07:42:31;;;;;;;;;1.33;1.33;;;;;;;;5021884;28;9009;-75
2023/05/09 07:45:00;;;;;;;;;1.00;1.00;;;;;;;;5022105;28;9001;-75
2023/05/09 07:47:27;;;;;;;;;1.00;1.00;;;;;;;;5026807;28;9662;-74
2023/05/09 07:49:54;;;;;;;;;1.00;1.00;;;;;;;;5026255;28;8938;-75
2023/05/09 07:52:21;;;;;;;;;3.00;1.00;;;;;;;;5026541;28;9109;-76
2023/05/09 07:54:48;;;;;;;;;1.00;1.00;;;;;;;;5025277;28;9155;-75
2023/05/09 07:57:16;;;;;;;;;1.67;1.67;;;;;;;;5018474;28;9113;-74
2023/05/09 07:59:43;;;;;;;;;1.00;1.00;;;;;;;;5026686;28;9915;-74
2023/05/09 08:02:11;;;;;;;;;0.00;0.00;;;;;;;;5024042;28;9250;-74
2023/05/09 08:04:39;;;;;;;;;1.00;1.00;;;;;;;;5025725;28;9112;-76
2023/05/09 08:07:07;;;;;;;;;1.00;1.00;;;;;;;;5023499;28;9105;-75
2023/05/09 08:09:35;;;;;;;;;0.00;0.00;;;;;;;;5022517;28;9098;-75
2023/05/09 08:12:02;;;;;;;;;1.00;1.00;;;;;;;;5026804;28;9153;-75
2023/05/09 08:14:29;;;;;;;;;1.33;0.00;;;;;;;;5026202;28;9747;-75
2023/05/09 08:16:56;;;;;;;;;1.00;1.00;;;;;;;;5027167;28;9041;-75
2023/05/09 08:19:25;;;;;;;;;1.00;1.00;;;;;;;;5026250;28;9166;-76
2023/05/09 08:21:52;;;;;;;;;0.67;0.67;;;;;;;;5026790;28;9179;-75
2023/05/09 08:24:19;;;;;;;;;0.00;0.00;;;;;;;;5024047;28;9021;-75
2023/05/09 08:26:46;;;;;;;;;1.00;1.00;;;;;;;;5026937;28;9124;-75
2023/05/09 08:29:15;;;;;;;;;1.00;1.00;;;;;;;;5023345;28;9046;-75
2023/05/09 08:31:42;;;;;;;;;1.33;1.33;;;;;;;;5017252;28;9228;-75
2023/05/09 08:34:09;;;;;;;;;1.00;1.00;;;;;;;;5023863;28;9280;-75
2023/05/09 08:36:39;;;;;;;;;0.67;0.67;;;;;;;;5026960;28;9148;-75
2023/05/09 08:39:08;;;;;;;;;1.33;1.33;;;;;;;;5026072;28;9198;-76
2023/05/09 08:41:35;;;;;;;;;2.00;1.00;;;;;;;;5026644;28;9198;-76
2023/05/09 08:44:03;;;;;;;;;1.00;1.00;;;;;;;;5018632;28;9067;-76
2023/05/09 08:46:33;;;;;;;;;1.33;1.33;;;;;;;;5026138;28;8919;-74
2023/05/09 08:49:06;;;;;;;;;2.00;2.00;;;;;;;;5025279;28;9009;-76
2023/05/09 08:51:33;;;;;;;;;1.00;1.00;;;;;;;;5020623;28;9005;-76
2023/05/09 08:54:02;;;;;;;;;3.00;1.00;;;;;;;;5025867;28;9060;-76
2023/05/09 08:56:30;;;;;;;;;2.00;2.00;;;;;;;;5026063;28;9151;-76
2023/05/09 08:58:57;;;;;;;;;1.00;1.00;;;;;;;;5023646;28;9142;-76
2023/05/09 09:01:26;;;;;;;;;1.00;1.00;;;;;;;;5025915;28;9043;-76
2023/05/09 09:03:54;;;;;;;;;0.67;0.67;;;;;;;;5023667;28;9186;-76
2023/05/09 09:06:22;;;;;;;;;0.00;0.00;;;;;;;;5027088;28;9197;-77
2023/05/09 09:08:49;;;;;;;;;1.00;1.00;;;;;;;;5023612;28;9213;-76
2023/05/09 09:11:19;;;;;;;;;1.67;1.67;;;;;;;;5026159;28;9033;-75
2023/05/09 09:13:47;;;;;;;;;1.00;1.00;;;;;;;;5026799;28;9090;-75
2023/05/09 09:16:19;;;;;;;;;1.00;1.00;;;;;;;;5018205;28;9220;-75
2023/05/09 09:18:47;;;;;;;;;0.00;0.00;;;;;;;;5029431;28;9051;-75
2023/05/09 09:21:16;;;;;;;;;2.00;2.00;;;;;;;;5030366;28;9044;-75
2023/05/09 09:23:46;;;;;;;;;3.00;1.00;;;;;;;;5030370;28;9192;-75
2023/05/09 09:26:13;;;;;;;;;1.00;1.00;;;;;;;;5030406;28;9251;-75
2023/05/09 09:28:42;;;;;;;;;1.00;1.00;;;;;;;;5030223;28;10054;-76
2023/05/09 09:31:23;;;;;;;;;2.00;2.00;;;;;;;;5029666;28;8983;-75
2023/05/09 09:33:51;;;;;;;;;3.00;1.33;;;;;;;;5023880;28;9129;-75
2023/05/09 09:36:27;;;;;;;;;5.67;5.67;;;;;;;;5023964;28;9004;-75
2023/05/09 09:39:00;;;;;;;;;4.67;4.67;;;;;;;;5025479;28;9237;-75
2023/05/09 09:41:31;;;;;;;;;5.00;5.00;;;;;;;;5030037;28;9267;-75
2023/05/09 09:44:07;;;;;;;;;9.50;9.50;;;;;;;;5019130;28;9315;-75
2023/05/09 09:46:42;;;;;;;;;4.00;2.00;;;;;;;;5030406;28;10251;-76
2023/05/09 09:49:10;;;;;;;;;5.00;5.00;;;;;;;;5026015;28;9391;-76
2023/05/09 09:51:37;;;;;;;;;5.67;5.67;;;;;;;;5022928;28;9199;-75
2023/05/09 09:54:07;;;;;;;;;3.00;2.50;;;;;;;;5029815;28;9254;-76
2023/05/09 09:56:42;;;;;;;;;3.00;3.00;;;;;;;;5029794;28;8834;-76
2023/05/09 09:59:11;;;;;;;;;1.00;1.00;;;;;;;;5030053;28;9148;-76
2023/05/09 10:01:58;;;;;;;;;3.00;3.00;;;;;;;;5028416;28;8910;-74
2023/05/09 10:04:29;;;;;;;;;3.67;3.00;;;;;;;;5029596;28;9135;-73
2023/05/09 10:06:57;;;;;;;;;4.00;2.67;;;;;;;;5026660;28;8943;-73
2023/05/09 10:09:25;;;;;;;;;3.00;1.00;;;;;;;;5035775;28;8954;-73
2023/05/09 10:11:53;;;;;;;;;3.75;3.75;;;;;;;;5029706;28;8896;-73
2023/05/09 10:14:23;;;;;;;;;4.33;3.33;;;;;;;;5029350;28;8830;-73
2023/05/09 10:16:52;;;;;;;;;2.33;2.33;;;;;;;;5029812;28;8942;-72
2023/05/09 10:19:20;;;;;;;;;4.50;4.00;;;;;;;;5029114;28;9147;-73
2023/05/09 10:21:52;;;;;;;;;7.67;4.33;;;;;;;;5029131;28;8882;-74
2023/05/09 10:24:25;;;;;;;;;3.67;3.67;;;;;;;;5028227;28;8945;-75
2023/05/09 10:26:54;;;;;;;;;3.00;3.00;;;;;;;;5031281;28;9010;-72
2023/05/09 10:29:25;;;;;;;;;4.33;3.00;;;;;;;;5028251;28;9036;-73
2023/05/09 10:31:56;;;;;;;;;4.75;3.50;;;;;;;;5016464;28;8911;-73
2023/05/09 10:34:26;;;;;;;;;3.00;3.00;;;;;;;;5024094;28;8861;-73
2023/05/09 10:36:54;;;;;;;;;2.00;2.00;;;;;;;;5029081;28;8927;-72
2023/05/09 10:39:23;;;;;;;;;3.00;3.00;;;;;;;;5026332;28;8862;-73
2023/05/09 10:41:50;;;;;;;;;3.00;3.00;;;;;;;;5025154;28;9015;-74
2023/05/09 10:44:18;;;;;;;;;3.00;3.00;;;;;;;;5016766;28;8866;-73
2023/05/09 10:46:47;;;;;;;;;5.00;5.00;;;;;;;;5020332;28;8858;-72
2023/05/09 10:49:14;;;;;;;;;3.00;3.00;;;;;;;;5024385;28;8920;-75
2023/05/09 10:51:42;;;;;;;;;3.00;3.00;;;;;;;;5024691;28;8848;-76
2023/05/09 10:54:26;;;;;;;;;6.75;4.00;;;;;;;;5030607;28;8854;-75
2023/05/09 10:56:54;;;;;;;;;3.50;3.25;;;;;;;;5025559;28;8994;-76
2023/05/09 10:59:36;;;;;;;;;3.50;3.00;;;;;;;;5020865;28;8884;-76
2023/05/09 11:02:05;;;;;;;;;4.50;4.00;;;;;;;;5024172;28;8839;-77
2023/05/09 11:04:33;;;;;;;;;3.50;3.50;;;;;;;;5024427;28;8838;-76
2023/05/09 11:07:03;;;;;;;;;3.00;3.00;;;;;;;;5026326;28;8839;-75
2023/05/09 11:09:36;;;;;;;;;5.00;5.00;;;;;;;;5021803;28;8947;-76
2023/05/09 11:12:11;;;;;;;;;5.33;5.33;;;;;;;;5022032;28;8856;-75
2023/05/09 11:14:45;;;;;;;;;6.50;6.50;;;;;;;;5028182;28;9096;-75
2023/05/09 11:17:15;;;;;;;;;6.00;4.50;;;;;;;;5027045;28;8870;-75
2023/05/09 11:19:59;;;;;;;;;24.67;24.67;;;;;;;;5026875;28;8872;-75
2023/05/09 11:22:27;;;;;;;;;12.67;10.00;;;;;;;;5028331;28;9471;-74
2023/05/09 11:25:03;;;;;;;;;19.00;13.00;;;;;;;;5028207;28;8927;-75
2023/05/09 11:27:40;;;;;;;;;18.67;17.33;;;;;;;;5022229;28;9011;-76
2023/05/09 11:30:08;;;;;;;;;5.00;5.00;;;;;;;;5027446;28;8937;-74
2023/05/09 11:32:44;;;;;;;;;9.50;6.75;;;;;;;;5027849;28;8846;-76
2023/05/09 11:35:13;;;;;;;;;3.75;3.75;;;;;;;;5028520;28;8866;-75
2023/05/09 11:37:46;;;;;;;;;3.25;3.25;;;;;;;;5028362;28;8822;-74
2023/05/09 11:40:16;;;;;;;;;5.00;3.25;;;;;;;;5028060;28;8858;-74
2023/05/09 11:42:43;;;;;;;;;4.00;4.00;;;;;;;;5021490;28;8906;-74
2023/05/09 11:45:11;;;;;;;;;4.00;4.00;;;;;;;;5022758;28;8854;-75
2023/05/09 11:47:40;;;;;;;;;3.00;3.00;;;;;;;;5028180;28;9668;-76
2023/05/09 11:50:09;;;;;;;;;3.75;3.00;;;;;;;;5027180;28;8863;-75
2023/05/09 11:52:37;;;;;;;;;5.00;3.25;;;;;;;;5027953;28;8842;-76
2023/05/09 11:55:07;;;;;;;;;4.00;4.00;;;;;;;;5027440;28;8842;-78
2023/05/09 11:57:35;;;;;;;;;4.00;4.00;;;;;;;;5027631;28;8846;-75
2023/05/09 12:00:05;;;;;;;;;5.75;4.50;;;;;;;;5026633;28;9631;-76
2023/05/09 12:02:33;;;;;;;;;2.00;2.00;;;;;;;;5047260;28;8811;-75
2023/05/09 12:05:09;;;;;;;;;4.00;4.00;;;;;;;;5046915;28;8858;-77
2023/05/09 12:07:38;;;;;;;;;3.25;3.25;;;;;;;;5048321;28;8852;-75
2023/05/09 12:10:07;;;;;;;;;3.00;3.00;;;;;;;;5046958;28;8848;-78
2023/05/09 12:12:35;;;;;;;;;3.25;3.25;;;;;;;;5047206;28;8820;-74
2023/05/09 12:15:04;;;;;;;;;4.00;4.00;;;;;;;;5047208;28;8843;-76
2023/05/09 12:17:31;;;;;;;;;3.25;3.25;;;;;;;;5047562;28;8844;-74
2023/05/09 12:20:00;;;;;;;;;3.00;3.00;;;;;;;;5047122;28;8975;-77
2023/05/09 12:22:29;;;;;;;;;4.75;3.00;;;;;;;;5047530;28;8836;-76
2023/05/09 12:24:56;;;;;;;;;4.75;3.75;;;;;;;;5040406;28;8855;-77
2023/05/09 12:27:25;;;;;;;;;2.25;2.25;;;;;;;;5047045;28;8844;-78
2023/05/09 12:29:52;;;;;;;;;1.00;1.00;;;;;;;;5047715;28;9638;-75
2023/05/09 12:32:20;;;;;;;;;2.50;1.00;;;;;;;;5046612;28;8839;-75
2023/05/09 12:34:47;;;;;;;;;1.00;1.00;;;;;;;;5048717;28;8852;-74
2023/05/09 12:37:16;;;;;;;;;1.00;1.00;;;;;;;;5043318;28;8838;-75
2023/05/09 12:39:45;;;;;;;;;0.25;0.25;;;;;;;;5049398;28;8888;-76
2023/05/09 12:42:13;;;;;;;;;2.00;2.00;;;;;;;;5047974;28;8855;-75
2023/05/09 12:44:42;;;;;;;;;2.00;2.00;;;;;;;;5047416;28;8851;-77
2023/05/09 12:47:13;;;;;;;;;1.00;1.00;;;;;;;;5046659;28;8954;-75
2023/05/09 12:49:40;;;;;;;;;0.50;0.50;;;;;;;;5047606;28;8862;-75
2023/05/09 12:52:18;;;;;;;;;0.50;0.50;;;;;;;;5050987;28;8899;-74
2023/05/09 12:54:48;;;;;;;;;1.00;1.00;;;;;;;;5051683;28;8844;-74
2023/05/09 12:57:22;;;;;;;;;1.00;1.00;;;;;;;;5051013;28;8828;-74
2023/05/09 12:59:49;;;;;;;;;1.00;1.00;;;;;;;;5050423;28;8879;-74
2023/05/09 13:02:17;;;;;;;;;1.25;1.25;;;;;;;;5045506;28;8808;-71
2023/05/09 13:04:45;;;;;;;;;1.50;1.50;;;;;;;;5044252;28;8990;-77
2023/05/09 13:07:13;;;;;;;;;1.00;1.00;;;;;;;;5049333;28;8855;-77
2023/05/09 13:12:35;;;;;;;;;3.75;2.00;;;;;;;;5063038;28;13567;-76
2023/05/09 13:15:02;;;;;;;;;2.00;2.00;;;;;;;;5047610;28;8836;-72
2023/05/09 13:17:30;;;;;;;;;1.50;1.50;;;;;;;;5048309;28;8872;-74
2023/05/09 13:19:57;;;;;;;;;2.00;2.00;;;;;;;;5044366;28;8852;-73
2023/05/09 13:22:25;;;;;;;;;1.50;1.50;;;;;;;;5040584;28;8856;-74
2023/05/09 13:24:52;;;;;;;;;1.00;1.00;;;;;;;;5036417;28;8875;-76
2023/05/09 13:27:19;;;;;;;;;1.25;1.25;;;;;;;;5043710;28;8860;-73
2023/05/09 13:29:47;;;;;;;;;1.00;1.00;;;;;;;;5045138;28;8872;-74
2023/05/09 13:32:15;;;;;;;;;2.00;1.75;;;;;;;;5025472;28;9643;-73
2023/05/09 13:34:42;;;;;;;;;1.00;1.00;;;;;;;;5024582;28;8864;-73
2023/05/09 13:37:09;;;;;;;;;1.50;1.00;;;;;;;;5024171;28;8857;-75
2023/05/09 13:39:36;;;;;;;;;1.00;1.00;;;;;;;;5024880;28;8878;-72
2023/05/09 13:42:03;;;;;;;;;2.00;2.00;;;;;;;;5023945;28;8848;-73
2023/05/09 13:44:31;;;;;;;;;2.00;2.00;;;;;;;;5024464;28;8870;-75
2023/05/09 13:46:59;;;;;;;;;3.25;2.00;;;;;;;;5024103;28;9597;-73
2023/05/09 13:49:26;;;;;;;;;2.25;2.25;;;;;;;;5024067;28;9005;-73
2023/05/09 13:51:54;;;;;;;;;3.25;1.75;;;;;;;;5024051;28;8891;-76
2023/05/09 13:54:22;;;;;;;;;2.00;2.00;;;;;;;;5024333;28;8866;-76
2023/05/09 13:56:52;;;;;;;;;4.50;2.50;;;;;;;;5024015;28;8910;-77
2023/05/09 13:59:19;;;;;;;;;2.25;2.25;;;;;;;;5023604;28;8864;-75
2023/05/09 14:01:46;;;;;;;;;2.00;2.00;;;;;;;;5024078;28;9657;-76
2023/05/09 14:04:15;;;;;;;;;1.00;1.00;;;;;;;;5024194;28;8902;-75
2023/05/09 14:06:46;;;;;;;;;2.75;2.00;;;;;;;;5024786;28;8902;-76
2023/05/09 14:09:14;;;;;;;;;1.25;1.25;;;;;;;;5014874;28;8951;-76
2023/05/09 14:11:42;;;;;;;;;1.00;1.00;;;;;;;;5024086;28;8922;-75
2023/05/09 14:14:09;;;;;;;;;1.00;1.00;;;;;;;;5023852;28;8870;-76
2023/05/09 14:16:39;;;;;;;;;1.00;1.00;;;;;;;;5022722;28;8864;-76
2023/05/09 14:19:06;;;;;;;;;1.00;1.00;;;;;;;;5015935;28;8990;-76
2023/05/09 14:21:35;;;;;;;;;1.00;1.00;;;;;;;;5024789;28;8934;-74
2023/05/09 14:24:02;;;;;;;;;0.00;0.00;;;;;;;;5011712;28;8867;-77
2023/05/09 14:26:30;;;;;;;;;0.00;0.00;;;;;;;;5003201;28;9700;-77
2023/05/09 14:28:57;;;;;;;;;1.00;1.00;;;;;;;;5011671;28;8860;-75
2023/05/09 14:31:24;;;;;;;;;1.00;1.00;;;;;;;;5016560;28;8894;-75
2023/05/09 14:33:51;;;;;;;;;1.00;1.00;;;;;;;;5012899;28;8864;-77
2023/05/09 14:36:19;;;;;;;;;1.00;1.00;;;;;;;;5019745;28;9690;-74
2023/05/09 14:38:47;;;;;;;;;2.00;0.25;;;;;;;;5010837;28;8896;-77
2023/05/09 14:41:15;;;;;;;;;0.00;0.00;;;;;;;;4999793;28;8856;-74
2023/05/09 14:43:42;;;;;;;;;1.00;1.00;;;;;;;;5009966;28;8898;-75
2023/05/09 14:46:11;;;;;;;;;2.00;2.00;;;;;;;;5009839;28;8863;-74
2023/05/09 14:48:39;;;;;;;;;1.00;1.00;;;;;;;;5012380;28;9302;-78
2023/05/09 14:51:07;;;;;;;;;1.75;1.75;;;;;;;;5019603;28;8886;-74
2023/05/09 14:53:38;;;;;;;;;1.00;1.00;;;;;;;;5012894;28;8874;-78
2023/05/09 14:56:08;;;;;;;;;1.00;1.00;;;;;;;;5018209;28;8877;-78
2023/05/09 14:58:35;;;;;;;;;2.00;2.00;;;;;;;;5022263;28;8851;-76
2023/05/09 15:01:03;;;;;;;;;2.00;2.00;;;;;;;;5009383;28;8803;-79
2023/05/09 15:03:30;;;;;;;;;1.25;1.25;;;;;;;;5009814;28;8864;-74
2023/05/09 15:05:58;;;;;;;;;1.00;1.00;;;;;;;;5010258;28;8887;-78
2023/05/09 15:08:25;;;;;;;;;2.25;2.25;;;;;;;;5009490;28;8871;-74